sensor_id;sensor_type;location;lat;lon;timestamp;pressure;altitude;pressure_sealevel;temperature;humidity
5879;BME280;2965;42.640;23.370;2023-03-23T05:02:55;94423.53;;;5.53;100.00
5879;BME280;2965;42.640;23.370;2023-03-23T05:05:22;94419.31;;;5.52;100.00
5879;BME280;2965;42.640;23.370;2023-03-23T05:07:48;94415.69;;;5.37;100.00
5879;BME280;2965;42.640;23.370;2023-03-23T05:10:15;94417.56;;;5.26;100.00
5879;BME280;2965;42.640;23.370;2023-03-23T05:12:42;94417.38;;;5.46;100.00
5879;BME280;2965;42.640;23.370;2023-03-23T05:15:08;94416.69;;;5.44;100.00
5879;BME280;2965;42.640;23.370;2023-03-23T05:17:34;94416.44;;;5.55;100.00
5879;BME280;2965;42.640;23.370;2023-03-23T05:20:00;94415.88;;;5.77;100.00
5879;BME280;2965;42.640;23.370;2023-03-23T05:22:27;94418.84;;;5.91;100.00
5879;BME280;2965;42.640;23.370;2023-03-23T05:24:53;94417.97;;;6.08;100.00
5879;BME280;2965;42.640;23.370;2023-03-23T05:27:19;94421.88;;;6.12;100.00
5879;BME280;2965;42.640;23.370;2023-03-23T05:29:46;94423.16;;;6.08;100.00
5879;BME280;2965;42.640;23.370;2023-03-23T05:32:14;94420.84;;;5.97;100.00
5879;BME280;2965;42.640;23.370;2023-03-23T05:34:40;94431.84;;;5.91;100.00
5879;BME280;2965;42.640;23.370;2023-03-23T05:37:07;94431.38;;;5.61;100.00
5879;BME280;2965;42.640;23.370;2023-03-23T05:39:35;94426.59;;;5.82;100.00
5879;BME280;2965;42.640;23.370;2023-03-23T05:42:00;94434.16;;;6.02;100.00
5879;BME280;2965;42.640;23.370;2023-03-23T05:44:25;94433.56;;;6.08;100.00
5879;BME280;2965;42.640;23.370;2023-03-23T05:46:52;94438.91;;;6.15;100.00
5879;BME280;2965;42.640;23.370;2023-03-23T05:49:17;94433.59;;;6.32;100.00
5879;BME280;2965;42.640;23.370;2023-03-23T05:51:43;94429.44;;;6.48;100.00
5879;BME280;2965;42.640;23.370;2023-03-23T05:54:11;94425.06;;;6.65;100.00
5879;BME280;2965;42.640;23.370;2023-03-23T05:56:36;94430.75;;;6.85;100.00
5879;BME280;2965;42.640;23.370;2023-03-23T05:59:02;94437.56;;;6.69;100.00
5879;BME280;2965;42.640;23.370;2023-03-23T06:01:28;94431.91;;;6.82;100.00
5879;BME280;2965;42.640;23.370;2023-03-23T06:03:53;94425.56;;;6.85;100.00
5879;BME280;2965;42.640;23.370;2023-03-23T06:06:22;94428.81;;;6.70;100.00
5879;BME280;2965;42.640;23.370;2023-03-23T06:08:47;94439.84;;;6.80;100.00
5879;BME280;2965;42.640;23.370;2023-03-23T06:11:15;94439.53;;;6.83;100.00
5879;BME280;2965;42.640;23.370;2023-03-23T06:13:41;94436.94;;;6.92;100.00
5879;BME280;2965;42.640;23.370;2023-03-23T06:16:07;94434.84;;;6.95;100.00
5879;BME280;2965;42.640;23.370;2023-03-23T06:18:34;94434.34;;;6.92;100.00
5879;BME280;2965;42.640;23.370;2023-03-23T06:21:04;94429.44;;;6.89;100.00
5879;BME280;2965;42.640;23.370;2023-03-23T06:23:30;94441.16;;;6.85;100.00
5879;BME280;2965;42.640;23.370;2023-03-23T06:25:58;94433.69;;;6.73;100.00
5879;BME280;2965;42.640;23.370;2023-03-23T06:28:24;94427.34;;;6.76;100.00
5879;BME280;2965;42.640;23.370;2023-03-23T06:30:50;94437.41;;;6.79;100.00
5879;BME280;2965;42.640;23.370;2023-03-23T06:33:16;94433.03;;;6.79;100.00
5879;BME280;2965;42.640;23.370;2023-03-23T06:35:42;94425.22;;;6.88;100.00
5879;BME280;2965;42.640;23.370;2023-03-23T06:38:08;94422.31;;;6.91;100.00
5879;BME280;2965;42.640;23.370;2023-03-23T06:40:34;94423.63;;;6.87;100.00
5879;BME280;2965;42.640;23.370;2023-03-23T06:43:01;94434.31;;;7.16;100.00
5879;BME280;2965;42.640;23.370;2023-03-23T06:45:26;94435.59;;;7.28;100.00
5879;BME280;2965;42.640;23.370;2023-03-23T06:47:52;94433.66;;;7.22;100.00
5879;BME280;2965;42.640;23.370;2023-03-23T06:50:17;94444.38;;;7.36;100.00
5879;BME280;2965;42.640;23.370;2023-03-23T06:52:47;94439.19;;;7.36;100.00
5879;BME280;2965;42.640;23.370;2023-03-23T06:55:13;94446.97;;;7.44;100.00
5879;BME280;2965;42.640;23.370;2023-03-23T06:57:39;94457.41;;;7.44;100.00
5879;BME280;2965;42.640;23.370;2023-03-23T07:00:06;94454.72;;;7.68;100.00
5879;BME280;2965;42.640;23.370;2023-03-23T07:02:33;94452.22;;;7.83;100.00
5879;BME280;2965;42.640;23.370;2023-03-23T07:04:59;94454.19;;;7.89;100.00
5879;BME280;2965;42.640;23.370;2023-03-23T07:07:25;94460.44;;;8.11;100.00
5879;BME280;2965;42.640;23.370;2023-03-23T07:09:51;94456.69;;;8.14;100.00
5879;BME280;2965;42.640;23.370;2023-03-23T07:12:16;94465.66;;;8.11;100.00
5879;BME280;2965;42.640;23.370;2023-03-23T07:14:42;94469.91;;;8.04;100.00
5879;BME280;2965;42.640;23.370;2023-03-23T07:17:07;94469.97;;;8.27;100.00
5879;BME280;2965;42.640;23.370;2023-03-23T07:19:33;94473.84;;;8.39;100.00
5879;BME280;2965;42.640;23.370;2023-03-23T07:21:58;94466.06;;;8.62;100.00
5879;BME280;2965;42.640;23.370;2023-03-23T07:24:24;94472.72;;;8.73;100.00
5879;BME280;2965;42.640;23.370;2023-03-23T07:26:49;94475.66;;;8.70;100.00
5879;BME280;2965;42.640;23.370;2023-03-23T07:29:14;94484.56;;;8.75;100.00
5879;BME280;2965;42.640;23.370;2023-03-23T07:31:40;94475.09;;;8.82;100.00
5879;BME280;2965;42.640;23.370;2023-03-23T07:34:06;94481.91;;;8.83;100.00
5879;BME280;2965;42.640;23.370;2023-03-23T07:36:31;94479.50;;;9.05;100.00
5879;BME280;2965;42.640;23.370;2023-03-23T07:38:58;94481.00;;;9.22;100.00
5879;BME280;2965;42.640;23.370;2023-03-23T07:41:24;94484.09;;;9.41;100.00
5879;BME280;2965;42.640;23.370;2023-03-23T07:43:49;94485.03;;;9.48;100.00
5879;BME280;2965;42.640;23.370;2023-03-23T07:46:14;94488.91;;;9.52;100.00
5879;BME280;2965;42.640;23.370;2023-03-23T07:48:40;94493.41;;;9.73;100.00
5879;BME280;2965;42.640;23.370;2023-03-23T07:51:06;94491.19;;;9.84;100.00
5879;BME280;2965;42.640;23.370;2023-03-23T07:53:32;94497.34;;;9.92;100.00
5879;BME280;2965;42.640;23.370;2023-03-23T07:55:58;94487.69;;;10.07;100.00
5879;BME280;2965;42.640;23.370;2023-03-23T07:58:24;94499.13;;;10.06;100.00
5879;BME280;2965;42.640;23.370;2023-03-23T08:00:51;94507.31;;;10.03;100.00
5879;BME280;2965;42.640;23.370;2023-03-23T08:03:18;94516.25;;;10.23;100.00
5879;BME280;2965;42.640;23.370;2023-03-23T08:05:43;94513.22;;;10.34;100.00
5879;BME280;2965;42.640;23.370;2023-03-23T08:08:10;94517.63;;;10.34;100.00
5879;BME280;2965;42.640;23.370;2023-03-23T08:10:36;94520.06;;;10.35;100.00
5879;BME280;2965;42.640;23.370;2023-03-23T08:13:02;94517.50;;;10.57;100.00
5879;BME280;2965;42.640;23.370;2023-03-23T08:15:28;94518.81;;;10.82;100.00
5879;BME280;2965;42.640;23.370;2023-03-23T08:17:55;94507.88;;;10.94;100.00
5879;BME280;2965;42.640;23.370;2023-03-23T08:20:21;94521.34;;;11.12;100.00
5879;BME280;2965;42.640;23.370;2023-03-23T08:22:54;94532.88;;;11.18;100.00
5879;BME280;2965;42.640;23.370;2023-03-23T08:25:21;94541.22;;;11.28;100.00
5879;BME280;2965;42.640;23.370;2023-03-23T08:27:47;94543.28;;;11.32;100.00
5879;BME280;2965;42.640;23.370;2023-03-23T08:30:18;94553.72;;;11.26;100.00
5879;BME280;2965;42.640;23.370;2023-03-23T08:32:45;94552.91;;;11.47;100.00
5879;BME280;2965;42.640;23.370;2023-03-23T08:35:11;94545.66;;;11.70;100.00
5879;BME280;2965;42.640;23.370;2023-03-23T08:37:38;94548.56;;;11.82;100.00
5879;BME280;2965;42.640;23.370;2023-03-23T08:40:04;94564.38;;;11.89;100.00
5879;BME280;2965;42.640;23.370;2023-03-23T08:42:35;94579.44;;;12.08;100.00
5879;BME280;2965;42.640;23.370;2023-03-23T08:45:00;94585.91;;;12.12;100.00
5879;BME280;2965;42.640;23.370;2023-03-23T08:47:26;94590.88;;;12.28;100.00
5879;BME280;2965;42.640;23.370;2023-03-23T08:49:51;94598.69;;;12.50;100.00
5879;BME280;2965;42.640;23.370;2023-03-23T08:52:19;94603.13;;;12.49;100.00
5879;BME280;2965;42.640;23.370;2023-03-23T08:54:45;94604.47;;;12.73;100.00
5879;BME280;2965;42.640;23.370;2023-03-23T08:57:13;94612.56;;;12.78;100.00
5879;BME280;2965;42.640;23.370;2023-03-23T08:59:40;94620.56;;;12.63;93.97
5879;BME280;2965;42.640;23.370;2023-03-23T09:02:08;94605.97;;;12.54;96.56
5879;BME280;2965;42.640;23.370;2023-03-23T09:04:34;94616.50;;;12.61;91.81
5879;BME280;2965;42.640;23.370;2023-03-23T09:06:59;94618.16;;;12.62;90.83
5879;BME280;2965;42.640;23.370;2023-03-23T09:09:25;94618.53;;;12.59;89.20
5879;BME280;2965;42.640;23.370;2023-03-23T09:11:53;94627.94;;;12.47;86.75
5879;BME280;2965;42.640;23.370;2023-03-23T09:14:18;94621.22;;;12.37;84.98
5879;BME280;2965;42.640;23.370;2023-03-23T09:16:43;94617.47;;;12.25;88.10
5879;BME280;2965;42.640;23.370;2023-03-23T09:19:10;94615.53;;;12.34;91.34
5879;BME280;2965;42.640;23.370;2023-03-23T09:21:36;94606.63;;;12.28;89.75
5879;BME280;2965;42.640;23.370;2023-03-23T09:24:01;94621.59;;;12.34;87.19
5879;BME280;2965;42.640;23.370;2023-03-23T09:26:27;94606.81;;;12.61;93.78
5879;BME280;2965;42.640;23.370;2023-03-23T09:28:53;94612.63;;;12.92;87.71
5879;BME280;2965;42.640;23.370;2023-03-23T09:31:19;94615.84;;;13.28;91.69
5879;BME280;2965;42.640;23.370;2023-03-23T09:33:48;94609.59;;;13.29;85.19
5879;BME280;2965;42.640;23.370;2023-03-23T09:36:17;94610.50;;;13.76;89.43
5879;BME280;2965;42.640;23.370;2023-03-23T09:38:43;94606.63;;;13.72;81.12
5879;BME280;2965;42.640;23.370;2023-03-23T09:41:43;94612.09;;;13.64;85.01
5879;BME280;2965;42.640;23.370;2023-03-23T09:49:40;94614.56;;;14.45;75.81
5879;BME280;2965;42.640;23.370;2023-03-23T09:52:13;94604.22;;;14.70;78.56
5879;BME280;2965;42.640;23.370;2023-03-23T09:54:42;94609.66;;;14.82;75.04
5879;BME280;2965;42.640;23.370;2023-03-23T09:57:20;94610.44;;;14.89;73.84
5879;BME280;2965;42.640;23.370;2023-03-23T10:05:26;94606.91;;;15.15;67.92
5879;BME280;2965;42.640;23.370;2023-03-23T10:07:53;94600.16;;;15.26;67.74
5879;BME280;2965;42.640;23.370;2023-03-23T10:10:36;94598.75;;;15.61;68.87
5879;BME280;2965;42.640;23.370;2023-03-23T10:13:10;94596.97;;;15.17;69.15
5879;BME280;2965;42.640;23.370;2023-03-23T10:15:41;94596.81;;;15.50;69.09
5879;BME280;2965;42.640;23.370;2023-03-23T10:18:41;94588.13;;;15.81;68.46
5879;BME280;2965;42.640;23.370;2023-03-23T10:21:03;94585.03;;;16.16;69.19
5879;BME280;2965;42.640;23.370;2023-03-23T10:29:38;94585.09;;;16.53;65.08
5879;BME280;2965;42.640;23.370;2023-03-23T10:32:17;94586.28;;;16.57;66.89
5879;BME280;2965;42.640;23.370;2023-03-23T10:34:53;94583.94;;;16.67;66.78
5879;BME280;2965;42.640;23.370;2023-03-23T10:37:24;94573.88;;;16.82;65.51
5879;BME280;2965;42.640;23.370;2023-03-23T10:39:53;94573.94;;;16.76;62.45
5879;BME280;2965;42.640;23.370;2023-03-23T10:42:32;94571.94;;;17.08;67.54
5879;BME280;2965;42.640;23.370;2023-03-23T10:45:00;94577.34;;;17.31;62.23
5879;BME280;2965;42.640;23.370;2023-03-23T10:47:26;94575.06;;;17.17;61.91
5879;BME280;2965;42.640;23.370;2023-03-23T10:49:59;94576.53;;;17.31;62.80
5879;BME280;2965;42.640;23.370;2023-03-23T10:52:37;94580.66;;;17.57;61.29
5879;BME280;2965;42.640;23.370;2023-03-23T10:55:15;94579.53;;;17.34;62.38
5879;BME280;2965;42.640;23.370;2023-03-23T10:57:43;94577.69;;;17.05;60.79
5879;BME280;2965;42.640;23.370;2023-03-23T11:00:19;94577.69;;;17.05;57.83
5879;BME280;2965;42.640;23.370;2023-03-23T11:02:59;94563.97;;;17.45;61.36
5879;BME280;2965;42.640;23.370;2023-03-23T11:05:31;94576.81;;;17.71;58.81
5879;BME280;2965;42.640;23.370;2023-03-23T11:07:59;94568.28;;;17.69;60.29
5879;BME280;2965;42.640;23.370;2023-03-23T11:10:28;94567.69;;;17.85;58.17
5879;BME280;2965;42.640;23.370;2023-03-23T11:12:57;94565.94;;;17.49;56.98
5879;BME280;2965;42.640;23.370;2023-03-23T11:15:38;94562.00;;;17.52;59.56
5879;BME280;2965;42.640;23.370;2023-03-23T11:18:06;94553.28;;;17.81;57.74
5879;BME280;2965;42.640;23.370;2023-03-23T11:20:38;94553.09;;;17.95;56.59
5879;BME280;2965;42.640;23.370;2023-03-23T11:23:28;94548.03;;;17.63;56.92
5879;BME280;2965;42.640;23.370;2023-03-23T11:28:47;94545.28;;;18.23;56.40
5879;BME280;2965;42.640;23.370;2023-03-23T11:31:16;94542.16;;;18.61;57.53
5879;BME280;2965;42.640;23.370;2023-03-23T11:33:52;94544.47;;;18.81;56.55
5879;BME280;2965;42.640;23.370;2023-03-23T11:36:19;94533.03;;;18.93;59.17
5879;BME280;2965;42.640;23.370;2023-03-23T11:38:46;94535.94;;;19.20;52.20
5879;BME280;2965;42.640;23.370;2023-03-23T11:41:17;94532.34;;;18.85;50.29
5879;BME280;2965;42.640;23.370;2023-03-23T11:43:45;94524.41;;;18.85;52.83
5879;BME280;2965;42.640;23.370;2023-03-23T11:46:18;94523.25;;;18.81;51.35
5879;BME280;2965;42.640;23.370;2023-03-23T11:48:54;94513.94;;;18.67;51.43
5879;BME280;2965;42.640;23.370;2023-03-23T11:51:41;94515.13;;;18.59;55.90
5879;BME280;2965;42.640;23.370;2023-03-23T11:56:46;94507.06;;;18.43;56.82
5879;BME280;2965;42.640;23.370;2023-03-23T11:59:29;94510.00;;;18.93;60.66
5879;BME280;2965;42.640;23.370;2023-03-23T12:02:04;94507.09;;;18.95;57.00
5879;BME280;2965;42.640;23.370;2023-03-23T12:12:29;94499.56;;;19.03;53.82
5879;BME280;2965;42.640;23.370;2023-03-23T12:15:25;94499.84;;;18.90;52.78
5879;BME280;2965;42.640;23.370;2023-03-23T12:26:18;94500.72;;;20.49;49.93
5879;BME280;2965;42.640;23.370;2023-03-23T12:34:41;94497.97;;;20.82;50.47
5879;BME280;2965;42.640;23.370;2023-03-23T12:45:12;94488.41;;;21.30;46.46
5879;BME280;2965;42.640;23.370;2023-03-23T12:47:52;94495.47;;;21.41;47.58
5879;BME280;2965;42.640;23.370;2023-03-23T12:50:37;94484.59;;;21.21;47.30
5879;BME280;2965;42.640;23.370;2023-03-23T12:53:15;94480.50;;;20.86;46.18
5879;BME280;2965;42.640;23.370;2023-03-23T12:55:46;94481.81;;;20.67;46.64
5879;BME280;2965;42.640;23.370;2023-03-23T12:58:25;94482.19;;;20.76;48.45
5879;BME280;2965;42.640;23.370;2023-03-23T13:01:14;94476.53;;;21.38;47.15
5879;BME280;2965;42.640;23.370;2023-03-23T13:04:01;94474.34;;;21.57;45.59
5879;BME280;2965;42.640;23.370;2023-03-23T13:06:35;94477.94;;;20.75;45.24
5879;BME280;2965;42.640;23.370;2023-03-23T13:09:04;94470.59;;;20.60;46.97
5879;BME280;2965;42.640;23.370;2023-03-23T13:11:36;94466.78;;;20.17;46.34
5879;BME280;2965;42.640;23.370;2023-03-23T13:22:59;94454.47;;;21.37;45.85
5879;BME280;2965;42.640;23.370;2023-03-23T13:25:44;94453.72;;;21.20;46.59
5879;BME280;2965;42.640;23.370;2023-03-23T13:28:18;94459.94;;;21.53;49.76
5879;BME280;2965;42.640;23.370;2023-03-23T13:31:11;94456.03;;;22.35;44.45
5879;BME280;2965;42.640;23.370;2023-03-23T13:33:38;94453.72;;;22.49;43.86
5879;BME280;2965;42.640;23.370;2023-03-23T13:36:08;94462.06;;;21.56;45.23
5879;BME280;2965;42.640;23.370;2023-03-23T13:38:34;94451.16;;;21.52;45.24
5879;BME280;2965;42.640;23.370;2023-03-23T13:41:07;94456.53;;;21.08;45.21
5879;BME280;2965;42.640;23.370;2023-03-23T13:43:35;94453.78;;;20.76;45.98
5879;BME280;2965;42.640;23.370;2023-03-23T13:48:48;94442.72;;;21.33;44.86
5879;BME280;2965;42.640;23.370;2023-03-23T13:57:02;94441.28;;;20.99;45.77
5879;BME280;2965;42.640;23.370;2023-03-23T14:01:53;94441.38;;;21.09;45.97
5879;BME280;2965;42.640;23.370;2023-03-23T14:04:19;94435.44;;;21.02;45.75
5879;BME280;2965;42.640;23.370;2023-03-23T14:06:48;94435.47;;;20.58;46.70
5879;BME280;2965;42.640;23.370;2023-03-23T14:09:17;94432.63;;;20.42;46.48
5879;BME280;2965;42.640;23.370;2023-03-23T14:12:04;94426.09;;;20.72;47.19
5879;BME280;2965;42.640;23.370;2023-03-23T14:14:40;94430.53;;;20.88;45.81
5879;BME280;2965;42.640;23.370;2023-03-23T14:17:12;94424.78;;;20.97;46.87
5879;BME280;2965;42.640;23.370;2023-03-23T14:19:40;94429.03;;;20.98;47.14
5879;BME280;2965;42.640;23.370;2023-03-23T14:22:27;94420.66;;;21.11;48.45
5879;BME280;2965;42.640;23.370;2023-03-23T14:25:08;94424.81;;;21.56;47.15
5879;BME280;2965;42.640;23.370;2023-03-23T14:27:35;94420.13;;;21.09;46.14
5879;BME280;2965;42.640;23.370;2023-03-23T14:30:03;94418.06;;;20.67;46.86
5879;BME280;2965;42.640;23.370;2023-03-23T14:32:30;94419.69;;;20.68;47.43
5879;BME280;2965;42.640;23.370;2023-03-23T14:34:58;94422.88;;;20.70;47.17
5879;BME280;2965;42.640;23.370;2023-03-23T14:37:24;94418.41;;;20.54;47.38
5879;BME280;2965;42.640;23.370;2023-03-23T14:39:53;94421.75;;;20.66;49.88
5879;BME280;2965;42.640;23.370;2023-03-23T14:42:27;94419.69;;;20.68;48.44
5879;BME280;2965;42.640;23.370;2023-03-23T14:44:53;94423.72;;;20.98;48.75
5879;BME280;2965;42.640;23.370;2023-03-23T14:47:40;94422.72;;;21.04;48.22
5879;BME280;2965;42.640;23.370;2023-03-23T14:52:57;94428.94;;;22.06;45.97
5879;BME280;2965;42.640;23.370;2023-03-23T14:57:51;94420.53;;;21.50;45.47
5879;BME280;2965;42.640;23.370;2023-03-23T15:00:23;94416.03;;;20.74;47.65
5879;BME280;2965;42.640;23.370;2023-03-23T15:02:53;94412.81;;;20.50;49.09
5879;BME280;2965;42.640;23.370;2023-03-23T15:05:26;94408.63;;;20.15;48.41
5879;BME280;2965;42.640;23.370;2023-03-23T15:07:55;94409.53;;;19.87;50.78
5879;BME280;2965;42.640;23.370;2023-03-23T15:10:22;94412.81;;;20.50;49.39
5879;BME280;2965;42.640;23.370;2023-03-23T15:12:49;94413.31;;;20.69;48.62
5879;BME280;2965;42.640;23.370;2023-03-23T15:15:23;94412.25;;;20.70;52.28
5879;BME280;2965;42.640;23.370;2023-03-23T15:17:49;94403.69;;;20.24;48.93
5879;BME280;2965;42.640;23.370;2023-03-23T15:20:24;94403.69;;;20.24;50.65
5879;BME280;2965;42.640;23.370;2023-03-23T15:22:50;94395.84;;;19.96;48.94
5879;BME280;2965;42.640;23.370;2023-03-23T15:27:55;94401.16;;;19.96;50.90
5879;BME280;2965;42.640;23.370;2023-03-23T15:32:54;94404.06;;;19.44;52.32
5879;BME280;2965;42.640;23.370;2023-03-23T15:35:23;94405.16;;;19.14;55.17
5879;BME280;2965;42.640;23.370;2023-03-23T15:37:58;94410.50;;;19.31;54.18
5879;BME280;2965;42.640;23.370;2023-03-23T15:40:25;94412.50;;;19.40;53.75
5879;BME280;2965;42.640;23.370;2023-03-23T15:45:38;94415.34;;;19.84;53.85
5879;BME280;2965;42.640;23.370;2023-03-23T15:48:12;94417.47;;;20.04;51.44
5879;BME280;2965;42.640;23.370;2023-03-23T15:50:39;94414.03;;;20.04;54.67
5879;BME280;2965;42.640;23.370;2023-03-23T15:55:53;94428.91;;;20.44;51.38
5879;BME280;2965;42.640;23.370;2023-03-23T15:58:18;94428.00;;;20.16;54.02
5879;BME280;2965;42.640;23.370;2023-03-23T16:00:45;94420.47;;;19.74;51.53
5879;BME280;2965;42.640;23.370;2023-03-23T16:03:16;94428.19;;;19.59;52.68
5879;BME280;2965;42.640;23.370;2023-03-23T16:05:42;94427.06;;;19.55;53.28
5879;BME280;2965;42.640;23.370;2023-03-23T16:08:10;94438.63;;;19.32;53.44
5879;BME280;2965;42.640;23.370;2023-03-23T16:10:36;94423.44;;;18.99;53.43
5879;BME280;2965;42.640;23.370;2023-03-23T16:13:01;94432.53;;;18.74;54.12
5879;BME280;2965;42.640;23.370;2023-03-23T16:15:26;94430.53;;;18.29;55.55
5879;BME280;2965;42.640;23.370;2023-03-23T16:17:52;94430.19;;;18.14;56.90
5879;BME280;2965;42.640;23.370;2023-03-23T16:20:20;94435.50;;;17.79;61.92
5879;BME280;2965;42.640;23.370;2023-03-23T16:22:46;94439.84;;;17.73;61.23
5879;BME280;2965;42.640;23.370;2023-03-23T16:25:12;94430.88;;;17.62;67.03
5879;BME280;2965;42.640;23.370;2023-03-23T16:27:39;94445.22;;;17.55;64.70
5879;BME280;2965;42.640;23.370;2023-03-23T16:32:41;94434.19;;;17.58;66.81
5879;BME280;2965;42.640;23.370;2023-03-23T16:35:07;94432.16;;;17.18;62.64
5879;BME280;2965;42.640;23.370;2023-03-23T16:37:32;94441.63;;;16.77;63.80
5879;BME280;2965;42.640;23.370;2023-03-23T16:39:59;94447.38;;;16.56;63.78
5879;BME280;2965;42.640;23.370;2023-03-23T16:42:24;94442.56;;;16.16;66.02
5879;BME280;2965;42.640;23.370;2023-03-23T16:44:50;94439.94;;;15.91;66.85
5879;BME280;2965;42.640;23.370;2023-03-23T16:47:16;94444.03;;;15.62;67.83
5879;BME280;2965;42.640;23.370;2023-03-23T16:49:43;94441.06;;;15.52;68.79
5879;BME280;2965;42.640;23.370;2023-03-23T16:52:09;94442.47;;;15.29;69.80
5879;BME280;2965;42.640;23.370;2023-03-23T16:54:34;94441.69;;;15.22;70.96
5879;BME280;2965;42.640;23.370;2023-03-23T16:57:00;94438.16;;;15.10;71.55
5879;BME280;2965;42.640;23.370;2023-03-23T16:59:28;94440.56;;;15.11;72.00
5879;BME280;2965;42.640;23.370;2023-03-23T17:01:53;94441.34;;;15.12;73.31
5879;BME280;2965;42.640;23.370;2023-03-23T17:04:19;94445.84;;;15.05;74.31
5879;BME280;2965;42.640;23.370;2023-03-23T17:06:45;94445.09;;;14.98;75.66
5879;BME280;2965;42.640;23.370;2023-03-23T17:09:10;94446.38;;;14.88;76.09
5879;BME280;2965;42.640;23.370;2023-03-23T17:11:36;94443.63;;;14.70;76.82
5879;BME280;2965;42.640;23.370;2023-03-23T17:14:01;94446.69;;;14.67;77.07
5879;BME280;2965;42.640;23.370;2023-03-23T17:16:27;94450.34;;;14.66;77.37
5879;BME280;2965;42.640;23.370;2023-03-23T17:18:52;94451.97;;;14.47;78.95
5879;BME280;2965;42.640;23.370;2023-03-23T17:21:17;94458.06;;;14.48;77.87
5879;BME280;2965;42.640;23.370;2023-03-23T17:23:45;94454.69;;;14.27;78.31
5879;BME280;2965;42.640;23.370;2023-03-23T17:26:10;94462.84;;;14.12;79.45
5879;BME280;2965;42.640;23.370;2023-03-23T17:28:35;94466.13;;;13.95;80.98
5879;BME280;2965;42.640;23.370;2023-03-23T17:31:05;94462.06;;;13.85;81.78
5879;BME280;2965;42.640;23.370;2023-03-23T17:33:31;94464.09;;;13.70;82.91
5879;BME280;2965;42.640;23.370;2023-03-23T17:35:56;94467.56;;;13.37;84.22
5879;BME280;2965;42.640;23.370;2023-03-23T17:38:22;94458.78;;;12.97;87.44
5879;BME280;2965;42.640;23.370;2023-03-23T17:40:55;94462.34;;;12.76;89.47
5879;BME280;2965;42.640;23.370;2023-03-23T17:43:21;94472.00;;;12.69;90.36
5879;BME280;2965;42.640;23.370;2023-03-23T17:45:46;94480.84;;;12.55;90.04
5879;BME280;2965;42.640;23.370;2023-03-23T17:48:11;94482.88;;;12.53;91.18
5879;BME280;2965;42.640;23.370;2023-03-23T17:50:37;94488.06;;;12.40;90.35
5879;BME280;2965;42.640;23.370;2023-03-23T17:53:02;94484.28;;;12.14;91.09
5879;BME280;2965;42.640;23.370;2023-03-23T17:55:28;94484.06;;;12.09;90.12
5879;BME280;2965;42.640;23.370;2023-03-23T17:57:54;94493.91;;;12.00;88.92
5879;BME280;2965;42.640;23.370;2023-03-23T18:00:20;94501.25;;;11.83;87.67
5879;BME280;2965;42.640;23.370;2023-03-23T18:02:45;94507.97;;;11.71;88.03
5879;BME280;2965;42.640;23.370;2023-03-23T18:05:11;94518.59;;;11.63;87.36
5879;BME280;2965;42.640;23.370;2023-03-23T18:07:36;94516.84;;;11.49;88.55
5879;BME280;2965;42.640;23.370;2023-03-23T18:10:03;94510.06;;;11.33;88.95
5879;BME280;2965;42.640;23.370;2023-03-23T18:12:36;94521.50;;;11.25;89.04
5879;BME280;2965;42.640;23.370;2023-03-23T18:15:01;94521.34;;;11.12;90.07
5879;BME280;2965;42.640;23.370;2023-03-23T18:17:26;94520.09;;;11.08;90.44
5879;BME280;2965;42.640;23.370;2023-03-23T18:19:52;94521.22;;;10.99;90.03
5879;BME280;2965;42.640;23.370;2023-03-23T18:22:18;94519.88;;;10.88;91.71
5879;BME280;2965;42.640;23.370;2023-03-23T18:24:43;94523.78;;;10.77;92.77
5879;BME280;2965;42.640;23.370;2023-03-23T18:27:09;94523.78;;;10.77;92.83
5879;BME280;2965;42.640;23.370;2023-03-23T18:29:35;94534.63;;;10.74;91.95
5879;BME280;2965;42.640;23.370;2023-03-23T18:32:00;94531.38;;;10.72;92.10
5879;BME280;2965;42.640;23.370;2023-03-23T18:34:25;94532.25;;;10.79;92.40
5879;BME280;2965;42.640;23.370;2023-03-23T18:36:51;94538.31;;;10.80;92.42
5879;BME280;2965;42.640;23.370;2023-03-23T18:39:16;94535.88;;;10.78;92.66
5879;BME280;2965;42.640;23.370;2023-03-23T18:41:42;94530.94;;;10.69;94.03
5879;BME280;2965;42.640;23.370;2023-03-23T18:44:07;94531.75;;;10.69;94.60
5879;BME280;2965;42.640;23.370;2023-03-23T18:46:33;94536.22;;;10.75;94.54
5879;BME280;2965;42.640;23.370;2023-03-23T18:48:58;94541.38;;;10.83;94.50
5879;BME280;2965;42.640;23.370;2023-03-23T18:51:24;94542.00;;;10.85;94.22
5879;BME280;2965;42.640;23.370;2023-03-23T18:53:50;94533.59;;;10.90;93.71
5879;BME280;2965;42.640;23.370;2023-03-23T18:56:16;94550.47;;;10.88;93.34
5879;BME280;2965;42.640;23.370;2023-03-23T18:58:43;94543.97;;;10.83;93.80
5879;BME280;2965;42.640;23.370;2023-03-23T19:01:11;94544.81;;;10.69;94.36
5879;BME280;2965;42.640;23.370;2023-03-23T19:03:37;94545.03;;;10.68;93.63
5879;BME280;2965;42.640;23.370;2023-03-23T19:06:03;94544.22;;;10.67;93.66
5879;BME280;2965;42.640;23.370;2023-03-23T19:08:30;94549.44;;;10.67;93.83
5879;BME280;2965;42.640;23.370;2023-03-23T19:10:58;94555.03;;;10.64;95.52
5879;BME280;2965;42.640;23.370;2023-03-23T19:13:26;94555.03;;;10.64;97.57
5879;BME280;2965;42.640;23.370;2023-03-23T19:15:51;94559.91;;;10.67;97.40
5879;BME280;2965;42.640;23.370;2023-03-23T19:18:18;94550.88;;;10.70;97.78
5879;BME280;2965;42.640;23.370;2023-03-23T19:20:43;94551.34;;;10.58;100.00
5879;BME280;2965;42.640;23.370;2023-03-23T19:23:09;94557.38;;;10.59;100.00
5879;BME280;2965;42.640;23.370;2023-03-23T19:25:35;94554.13;;;10.57;100.00
5879;BME280;2965;42.640;23.370;2023-03-23T19:28:00;94558.91;;;10.53;100.00
5879;BME280;2965;42.640;23.370;2023-03-23T19:30:26;94561.53;;;10.39;100.00
5879;BME280;2965;42.640;23.370;2023-03-23T19:32:51;94559.28;;;10.35;100.00
5879;BME280;2965;42.640;23.370;2023-03-23T19:35:17;94567.41;;;10.41;100.00
5879;BME280;2965;42.640;23.370;2023-03-23T19:37:42;94572.00;;;10.39;100.00
5879;BME280;2965;42.640;23.370;2023-03-23T19:40:08;94573.00;;;10.38;100.00
5879;BME280;2965;42.640;23.370;2023-03-23T19:42:34;94573.53;;;10.33;100.00
5879;BME280;2965;42.640;23.370;2023-03-23T19:45:00;94576.69;;;10.28;100.00
5879;BME280;2965;42.640;23.370;2023-03-23T19:47:26;94575.06;;;10.27;100.00
5879;BME280;2965;42.640;23.370;2023-03-23T19:49:52;94581.91;;;10.28;100.00